sensor_id;sensor_type;location;lat;lon;timestamp;P1;durP1;ratioP1;P2;durP2;ratioP2
14817;SDS011;7500;57.698;11.986;2023-07-30T00:02:15;19.57;;;17.53;;
14817;SDS011;7500;57.698;11.986;2023-07-30T00:04:42;20.37;;;17.67;;
14817;SDS011;7500;57.698;11.986;2023-07-30T00:07:09;18.67;;;16.77;;
14817;SDS011;7500;57.698;11.986;2023-07-30T00:09:36;18.40;;;16.43;;
14817;SDS011;7500;57.698;11.986;2023-07-30T00:12:04;18.10;;;16.27;;
14817;SDS011;7500;57.698;11.986;2023-07-30T00:14:31;16.40;;;13.93;;
14817;SDS011;7500;57.698;11.986;2023-07-30T00:16:58;15.23;;;13.63;;
14817;SDS011;7500;57.698;11.986;2023-07-30T00:19:24;16.30;;;14.63;;
14817;SDS011;7500;57.698;11.986;2023-07-30T00:21:51;18.33;;;15.40;;
14817;SDS011;7500;57.698;11.986;2023-07-30T00:24:17;14.07;;;12.60;;
14817;SDS011;7500;57.698;11.986;2023-07-30T00:26:44;26.83;;;10.87;;
14817;SDS011;7500;57.698;11.986;2023-07-30T00:29:12;12.27;;;10.10;;
14817;SDS011;7500;57.698;11.986;2023-07-30T00:31:39;11.40;;;8.50;;
14817;SDS011;7500;57.698;11.986;2023-07-30T00:34:05;15.50;;;9.20;;
14817;SDS011;7500;57.698;11.986;2023-07-30T00:36:32;11.67;;;7.83;;
14817;SDS011;7500;57.698;11.986;2023-07-30T00:38:58;11.80;;;7.13;;
14817;SDS011;7500;57.698;11.986;2023-07-30T00:41:25;9.83;;;6.37;;
14817;SDS011;7500;57.698;11.986;2023-07-30T00:43:51;10.93;;;5.93;;
14817;SDS011;7500;57.698;11.986;2023-07-30T00:46:19;9.03;;;5.70;;
14817;SDS011;7500;57.698;11.986;2023-07-30T00:48:46;10.87;;;5.03;;
14817;SDS011;7500;57.698;11.986;2023-07-30T00:51:13;12.83;;;5.60;;
14817;SDS011;7500;57.698;11.986;2023-07-30T00:53:39;11.53;;;4.80;;
14817;SDS011;7500;57.698;11.986;2023-07-30T00:56:06;6.20;;;4.30;;
14817;SDS011;7500;57.698;11.986;2023-07-30T00:58:33;8.03;;;4.93;;
14817;SDS011;7500;57.698;11.986;2023-07-30T01:00:59;10.43;;;4.70;;
14817;SDS011;7500;57.698;11.986;2023-07-30T01:03:27;9.70;;;4.50;;
14817;SDS011;7500;57.698;11.986;2023-07-30T01:05:54;11.60;;;4.53;;
14817;SDS011;7500;57.698;11.986;2023-07-30T01:08:21;11.37;;;5.17;;
14817;SDS011;7500;57.698;11.986;2023-07-30T01:10:47;9.37;;;4.43;;
14817;SDS011;7500;57.698;11.986;2023-07-30T01:13:15;9.87;;;4.10;;
14817;SDS011;7500;57.698;11.986;2023-07-30T01:15:42;11.20;;;4.73;;
14817;SDS011;7500;57.698;11.986;2023-07-30T01:18:08;12.03;;;4.50;;
14817;SDS011;7500;57.698;11.986;2023-07-30T01:20:36;11.50;;;4.60;;
14817;SDS011;7500;57.698;11.986;2023-07-30T01:23:04;8.93;;;3.90;;
14817;SDS011;7500;57.698;11.986;2023-07-30T01:25:33;8.80;;;4.27;;
14817;SDS011;7500;57.698;11.986;2023-07-30T01:28:01;8.53;;;3.27;;
14817;SDS011;7500;57.698;11.986;2023-07-30T01:30:30;9.57;;;3.30;;
14817;SDS011;7500;57.698;11.986;2023-07-30T01:32:58;9.47;;;3.00;;
14817;SDS011;7500;57.698;11.986;2023-07-30T01:35:26;8.10;;;3.27;;
14817;SDS011;7500;57.698;11.986;2023-07-30T01:37:53;9.97;;;3.50;;
14817;SDS011;7500;57.698;11.986;2023-07-30T01:40:21;8.13;;;3.23;;
14817;SDS011;7500;57.698;11.986;2023-07-30T01:42:48;7.77;;;3.10;;
14817;SDS011;7500;57.698;11.986;2023-07-30T01:45:15;8.43;;;2.93;;
14817;SDS011;7500;57.698;11.986;2023-07-30T01:47:42;8.40;;;3.27;;
14817;SDS011;7500;57.698;11.986;2023-07-30T01:50:09;10.63;;;3.10;;
14817;SDS011;7500;57.698;11.986;2023-07-30T01:52:35;6.67;;;3.40;;
14817;SDS011;7500;57.698;11.986;2023-07-30T01:55:02;5.63;;;2.70;;
14817;SDS011;7500;57.698;11.986;2023-07-30T01:57:30;4.93;;;3.20;;
14817;SDS011;7500;57.698;11.986;2023-07-30T01:59:57;9.37;;;3.60;;
14817;SDS011;7500;57.698;11.986;2023-07-30T02:02:23;4.80;;;2.87;;
14817;SDS011;7500;57.698;11.986;2023-07-30T02:04:50;7.23;;;2.93;;
14817;SDS011;7500;57.698;11.986;2023-07-30T02:07:16;9.33;;;3.33;;
14817;SDS011;7500;57.698;11.986;2023-07-30T02:09:43;6.63;;;3.57;;
14817;SDS011;7500;57.698;11.986;2023-07-30T02:12:10;6.90;;;3.97;;
14817;SDS011;7500;57.698;11.986;2023-07-30T02:14:38;5.03;;;3.47;;
14817;SDS011;7500;57.698;11.986;2023-07-30T02:17:04;5.80;;;3.30;;
14817;SDS011;7500;57.698;11.986;2023-07-30T02:19:31;6.23;;;4.00;;
14817;SDS011;7500;57.698;11.986;2023-07-30T02:21:57;4.87;;;3.50;;
14817;SDS011;7500;57.698;11.986;2023-07-30T02:24:24;7.57;;;3.90;;
14817;SDS011;7500;57.698;11.986;2023-07-30T02:26:51;4.50;;;4.10;;
14817;SDS011;7500;57.698;11.986;2023-07-30T02:29:17;5.27;;;3.97;;
14817;SDS011;7500;57.698;11.986;2023-07-30T02:31:45;4.97;;;4.30;;
14817;SDS011;7500;57.698;11.986;2023-07-30T02:34:12;6.93;;;4.43;;
14817;SDS011;7500;57.698;11.986;2023-07-30T02:36:38;7.13;;;4.70;;
14817;SDS011;7500;57.698;11.986;2023-07-30T02:39:05;8.10;;;4.77;;
14817;SDS011;7500;57.698;11.986;2023-07-30T02:41:31;6.43;;;4.83;;
14817;SDS011;7500;57.698;11.986;2023-07-30T02:43:58;6.67;;;4.70;;
14817;SDS011;7500;57.698;11.986;2023-07-30T02:46:24;8.27;;;4.93;;
14817;SDS011;7500;57.698;11.986;2023-07-30T02:48:52;6.13;;;4.83;;
14817;SDS011;7500;57.698;11.986;2023-07-30T02:51:19;7.00;;;4.83;;
14817;SDS011;7500;57.698;11.986;2023-07-30T02:53:45;7.70;;;4.53;;
14817;SDS011;7500;57.698;11.986;2023-07-30T02:56:12;4.83;;;4.30;;
14817;SDS011;7500;57.698;11.986;2023-07-30T02:58:39;4.97;;;4.13;;
14817;SDS011;7500;57.698;11.986;2023-07-30T03:01:06;5.57;;;4.10;;
14817;SDS011;7500;57.698;11.986;2023-07-30T03:03:33;4.50;;;3.67;;
14817;SDS011;7500;57.698;11.986;2023-07-30T03:06:01;5.30;;;3.40;;
14817;SDS011;7500;57.698;11.986;2023-07-30T03:08:27;3.90;;;3.00;;
14817;SDS011;7500;57.698;11.986;2023-07-30T03:10:54;6.23;;;2.57;;
14817;SDS011;7500;57.698;11.986;2023-07-30T03:13:23;6.67;;;2.80;;
14817;SDS011;7500;57.698;11.986;2023-07-30T03:15:50;5.87;;;2.93;;
14817;SDS011;7500;57.698;11.986;2023-07-30T03:18:16;4.90;;;2.90;;
14817;SDS011;7500;57.698;11.986;2023-07-30T03:20:43;6.87;;;2.80;;
14817;SDS011;7500;57.698;11.986;2023-07-30T03:23:11;3.17;;;2.50;;
14817;SDS011;7500;57.698;11.986;2023-07-30T03:25:37;4.53;;;2.80;;
14817;SDS011;7500;57.698;11.986;2023-07-30T03:28:04;5.67;;;2.83;;
14817;SDS011;7500;57.698;11.986;2023-07-30T03:30:31;6.87;;;2.83;;
14817;SDS011;7500;57.698;11.986;2023-07-30T03:32:57;5.43;;;2.70;;
14817;SDS011;7500;57.698;11.986;2023-07-30T03:35:24;5.73;;;2.83;;
14817;SDS011;7500;57.698;11.986;2023-07-30T03:37:51;6.37;;;3.03;;
14817;SDS011;7500;57.698;11.986;2023-07-30T03:40:19;6.10;;;2.87;;
14817;SDS011;7500;57.698;11.986;2023-07-30T03:42:45;5.20;;;2.70;;
14817;SDS011;7500;57.698;11.986;2023-07-30T03:45:12;5.87;;;2.83;;
14817;SDS011;7500;57.698;11.986;2023-07-30T03:47:39;6.10;;;2.80;;
14817;SDS011;7500;57.698;11.986;2023-07-30T03:50:05;7.40;;;2.83;;
14817;SDS011;7500;57.698;11.986;2023-07-30T03:52:32;7.67;;;2.87;;
14817;SDS011;7500;57.698;11.986;2023-07-30T03:54:59;2.87;;;2.50;;
14817;SDS011;7500;57.698;11.986;2023-07-30T03:57:27;7.80;;;2.80;;
14817;SDS011;7500;57.698;11.986;2023-07-30T03:59:53;6.53;;;2.83;;
14817;SDS011;7500;57.698;11.986;2023-07-30T04:02:20;5.27;;;3.00;;
14817;SDS011;7500;57.698;11.986;2023-07-30T04:04:46;8.83;;;3.27;;
14817;SDS011;7500;57.698;11.986;2023-07-30T04:07:15;4.47;;;2.90;;
14817;SDS011;7500;57.698;11.986;2023-07-30T04:09:41;5.93;;;3.20;;
14817;SDS011;7500;57.698;11.986;2023-07-30T04:12:08;5.00;;;3.20;;
14817;SDS011;7500;57.698;11.986;2023-07-30T04:14:36;4.53;;;2.67;;
14817;SDS011;7500;57.698;11.986;2023-07-30T04:17:03;7.27;;;3.10;;
14817;SDS011;7500;57.698;11.986;2023-07-30T04:19:29;8.60;;;3.03;;
14817;SDS011;7500;57.698;11.986;2023-07-30T04:21:56;4.80;;;2.90;;
14817;SDS011;7500;57.698;11.986;2023-07-30T04:24:22;5.77;;;3.00;;
14817;SDS011;7500;57.698;11.986;2023-07-30T04:26:49;7.10;;;3.33;;
14817;SDS011;7500;57.698;11.986;2023-07-30T04:29:15;5.70;;;3.13;;
14817;SDS011;7500;57.698;11.986;2023-07-30T04:31:43;7.77;;;3.30;;
14817;SDS011;7500;57.698;11.986;2023-07-30T04:34:10;5.37;;;3.20;;
14817;SDS011;7500;57.698;11.986;2023-07-30T04:36:37;8.87;;;3.43;;
14817;SDS011;7500;57.698;11.986;2023-07-30T04:39:03;4.87;;;3.03;;
14817;SDS011;7500;57.698;11.986;2023-07-30T04:41:30;4.53;;;3.50;;
14817;SDS011;7500;57.698;11.986;2023-07-30T04:43:56;5.63;;;3.50;;
14817;SDS011;7500;57.698;11.986;2023-07-30T04:46:23;8.60;;;3.30;;
14817;SDS011;7500;57.698;11.986;2023-07-30T04:48:52;7.13;;;3.67;;
14817;SDS011;7500;57.698;11.986;2023-07-30T04:51:18;4.20;;;3.00;;
14817;SDS011;7500;57.698;11.986;2023-07-30T04:53:45;8.17;;;3.37;;
14817;SDS011;7500;57.698;11.986;2023-07-30T04:56:12;7.03;;;3.33;;
14817;SDS011;7500;57.698;11.986;2023-07-30T04:58:38;5.33;;;3.40;;
14817;SDS011;7500;57.698;11.986;2023-07-30T05:01:05;6.67;;;3.20;;
14817;SDS011;7500;57.698;11.986;2023-07-30T05:03:31;5.57;;;3.27;;
14817;SDS011;7500;57.698;11.986;2023-07-30T05:05:59;7.43;;;3.53;;
14817;SDS011;7500;57.698;11.986;2023-07-30T05:08:26;7.73;;;3.60;;
14817;SDS011;7500;57.698;11.986;2023-07-30T05:10:52;5.07;;;3.30;;
14817;SDS011;7500;57.698;11.986;2023-07-30T05:13:19;7.03;;;3.23;;
14817;SDS011;7500;57.698;11.986;2023-07-30T05:15:46;7.53;;;3.30;;
14817;SDS011;7500;57.698;11.986;2023-07-30T05:18:12;6.13;;;3.50;;
14817;SDS011;7500;57.698;11.986;2023-07-30T05:20:39;5.97;;;3.00;;
14817;SDS011;7500;57.698;11.986;2023-07-30T05:23:07;5.70;;;3.00;;
14817;SDS011;7500;57.698;11.986;2023-07-30T05:25:34;6.20;;;3.03;;
14817;SDS011;7500;57.698;11.986;2023-07-30T05:28:01;5.60;;;3.27;;
14817;SDS011;7500;57.698;11.986;2023-07-30T05:30:27;8.03;;;3.27;;
14817;SDS011;7500;57.698;11.986;2023-07-30T05:32:54;5.47;;;3.10;;
14817;SDS011;7500;57.698;11.986;2023-07-30T05:35:20;5.57;;;3.53;;
14817;SDS011;7500;57.698;11.986;2023-07-30T05:37:47;6.73;;;3.67;;
14817;SDS011;7500;57.698;11.986;2023-07-30T05:40:15;7.40;;;3.50;;
14817;SDS011;7500;57.698;11.986;2023-07-30T05:42:42;6.67;;;3.40;;
14817;SDS011;7500;57.698;11.986;2023-07-30T05:45:09;6.43;;;4.00;;
14817;SDS011;7500;57.698;11.986;2023-07-30T05:47:35;5.80;;;3.40;;
14817;SDS011;7500;57.698;11.986;2023-07-30T05:50:02;5.33;;;3.70;;
14817;SDS011;7500;57.698;11.986;2023-07-30T05:52:28;5.93;;;3.63;;
14817;SDS011;7500;57.698;11.986;2023-07-30T05:54:55;6.20;;;3.80;;
14817;SDS011;7500;57.698;11.986;2023-07-30T05:57:23;4.97;;;3.20;;
14817;SDS011;7500;57.698;11.986;2023-07-30T05:59:50;5.60;;;3.50;;
14817;SDS011;7500;57.698;11.986;2023-07-30T06:02:16;5.53;;;3.37;;
14817;SDS011;7500;57.698;11.986;2023-07-30T06:04:43;5.90;;;3.30;;
14817;SDS011;7500;57.698;11.986;2023-07-30T06:07:10;6.63;;;3.33;;
14817;SDS011;7500;57.698;11.986;2023-07-30T06:09:36;8.80;;;3.40;;
14817;SDS011;7500;57.698;11.986;2023-07-30T06:12:03;7.43;;;3.70;;
14817;SDS011;7500;57.698;11.986;2023-07-30T06:14:31;6.70;;;3.50;;
14817;SDS011;7500;57.698;11.986;2023-07-30T06:16:58;7.13;;;4.00;;
14817;SDS011;7500;57.698;11.986;2023-07-30T06:19:24;6.73;;;3.17;;
14817;SDS011;7500;57.698;11.986;2023-07-30T06:21:51;7.17;;;3.60;;
14817;SDS011;7500;57.698;11.986;2023-07-30T06:24:18;8.67;;;3.73;;
14817;SDS011;7500;57.698;11.986;2023-07-30T06:26:44;5.57;;;3.20;;
14817;SDS011;7500;57.698;11.986;2023-07-30T06:29:11;6.63;;;3.57;;
14817;SDS011;7500;57.698;11.986;2023-07-30T06:31:39;5.87;;;3.40;;
14817;SDS011;7500;57.698;11.986;2023-07-30T06:34:06;6.10;;;3.40;;
14817;SDS011;7500;57.698;11.986;2023-07-30T06:36:32;6.57;;;3.57;;
14817;SDS011;7500;57.698;11.986;2023-07-30T06:38:59;5.87;;;3.60;;
14817;SDS011;7500;57.698;11.986;2023-07-30T06:41:26;8.17;;;3.37;;
14817;SDS011;7500;57.698;11.986;2023-07-30T06:43:52;6.53;;;2.97;;
14817;SDS011;7500;57.698;11.986;2023-07-30T06:46:19;4.40;;;2.80;;
14817;SDS011;7500;57.698;11.986;2023-07-30T06:48:47;5.80;;;2.70;;
14817;SDS011;7500;57.698;11.986;2023-07-30T06:51:13;6.07;;;2.90;;
14817;SDS011;7500;57.698;11.986;2023-07-30T06:53:40;4.90;;;2.90;;
14817;SDS011;7500;57.698;11.986;2023-07-30T06:56:06;7.63;;;2.83;;
14817;SDS011;7500;57.698;11.986;2023-07-30T06:58:33;7.93;;;2.90;;
14817;SDS011;7500;57.698;11.986;2023-07-30T07:01:00;4.03;;;2.77;;
14817;SDS011;7500;57.698;11.986;2023-07-30T07:03:26;6.63;;;3.10;;
14817;SDS011;7500;57.698;11.986;2023-07-30T07:05:54;3.90;;;2.60;;
14817;SDS011;7500;57.698;11.986;2023-07-30T07:08:21;5.83;;;2.80;;
14817;SDS011;7500;57.698;11.986;2023-07-30T07:10:48;5.67;;;3.00;;
14817;SDS011;7500;57.698;11.986;2023-07-30T07:13:14;4.73;;;2.70;;
14817;SDS011;7500;57.698;11.986;2023-07-30T07:15:41;6.03;;;3.03;;
14817;SDS011;7500;57.698;11.986;2023-07-30T07:18:08;5.10;;;3.03;;
14817;SDS011;7500;57.698;11.986;2023-07-30T07:20:35;7.50;;;3.40;;
14817;SDS011;7500;57.698;11.986;2023-07-30T07:23:03;5.67;;;3.37;;
14817;SDS011;7500;57.698;11.986;2023-07-30T07:25:30;7.23;;;3.60;;
14817;SDS011;7500;57.698;11.986;2023-07-30T07:27:56;7.33;;;3.50;;
14817;SDS011;7500;57.698;11.986;2023-07-30T07:30:23;6.37;;;3.27;;
14817;SDS011;7500;57.698;11.986;2023-07-30T07:32:49;9.27;;;3.33;;
14817;SDS011;7500;57.698;11.986;2023-07-30T07:35:16;4.50;;;3.20;;
14817;SDS011;7500;57.698;11.986;2023-07-30T07:37:43;9.47;;;3.23;;
14817;SDS011;7500;57.698;11.986;2023-07-30T07:40:11;6.33;;;3.30;;
14817;SDS011;7500;57.698;11.986;2023-07-30T07:42:38;5.07;;;3.10;;
14817;SDS011;7500;57.698;11.986;2023-07-30T07:45:05;5.70;;;3.00;;
14817;SDS011;7500;57.698;11.986;2023-07-30T07:47:32;7.57;;;2.90;;
14817;SDS011;7500;57.698;11.986;2023-07-30T07:49:58;4.40;;;3.00;;
14817;SDS011;7500;57.698;11.986;2023-07-30T07:52:25;6.90;;;3.07;;
14817;SDS011;7500;57.698;11.986;2023-07-30T07:54:52;5.77;;;3.00;;
14817;SDS011;7500;57.698;11.986;2023-07-30T07:57:20;6.00;;;3.30;;
14817;SDS011;7500;57.698;11.986;2023-07-30T07:59:46;4.30;;;2.80;;
14817;SDS011;7500;57.698;11.986;2023-07-30T08:02:13;4.80;;;3.20;;
14817;SDS011;7500;57.698;11.986;2023-07-30T08:04:40;7.07;;;3.07;;
14817;SDS011;7500;57.698;11.986;2023-07-30T08:07:06;6.27;;;2.73;;
14817;SDS011;7500;57.698;11.986;2023-07-30T08:09:33;5.93;;;2.77;;
14817;SDS011;7500;57.698;11.986;2023-07-30T08:11:59;5.23;;;2.73;;
14817;SDS011;7500;57.698;11.986;2023-07-30T08:14:28;4.07;;;2.53;;
14817;SDS011;7500;57.698;11.986;2023-07-30T08:16:55;6.27;;;2.80;;
14817;SDS011;7500;57.698;11.986;2023-07-30T08:19:22;6.97;;;2.73;;
14817;SDS011;7500;57.698;11.986;2023-07-30T08:21:49;3.60;;;2.50;;
14817;SDS011;7500;57.698;11.986;2023-07-30T08:24:15;5.67;;;2.53;;
14817;SDS011;7500;57.698;11.986;2023-07-30T08:26:42;5.30;;;2.53;;
14817;SDS011;7500;57.698;11.986;2023-07-30T08:29:08;6.37;;;2.83;;
14817;SDS011;7500;57.698;11.986;2023-07-30T08:31:39;6.20;;;2.97;;
14817;SDS011;7500;57.698;11.986;2023-07-30T08:34:06;6.70;;;2.70;;
14817;SDS011;7500;57.698;11.986;2023-07-30T08:36:33;7.00;;;3.00;;
14817;SDS011;7500;57.698;11.986;2023-07-30T08:39:00;4.87;;;3.23;;
14817;SDS011;7500;57.698;11.986;2023-07-30T08:41:27;7.93;;;3.20;;
14817;SDS011;7500;57.698;11.986;2023-07-30T08:43:54;6.57;;;3.20;;
14817;SDS011;7500;57.698;11.986;2023-07-30T08:46:20;4.77;;;3.10;;
14817;SDS011;7500;57.698;11.986;2023-07-30T08:48:48;8.23;;;3.50;;
14817;SDS011;7500;57.698;11.986;2023-07-30T08:51:15;5.97;;;3.00;;
14817;SDS011;7500;57.698;11.986;2023-07-30T08:53:42;7.33;;;3.30;;
14817;SDS011;7500;57.698;11.986;2023-07-30T08:56:09;9.17;;;3.27;;
14817;SDS011;7500;57.698;11.986;2023-07-30T08:58:35;5.87;;;3.07;;
14817;SDS011;7500;57.698;11.986;2023-07-30T09:01:03;5.97;;;3.27;;
14817;SDS011;7500;57.698;11.986;2023-07-30T09:03:32;7.70;;;3.27;;
14817;SDS011;7500;57.698;11.986;2023-07-30T09:06:01;5.67;;;2.93;;
14817;SDS011;7500;57.698;11.986;2023-07-30T09:08:28;5.50;;;2.73;;
14817;SDS011;7500;57.698;11.986;2023-07-30T09:10:55;7.03;;;3.20;;
14817;SDS011;7500;57.698;11.986;2023-07-30T09:13:21;8.23;;;3.20;;
14817;SDS011;7500;57.698;11.986;2023-07-30T09:15:49;8.27;;;3.40;;
14817;SDS011;7500;57.698;11.986;2023-07-30T09:18:16;7.33;;;3.47;;
14817;SDS011;7500;57.698;11.986;2023-07-30T09:20:43;7.53;;;3.43;;
14817;SDS011;7500;57.698;11.986;2023-07-30T09:23:11;6.57;;;3.40;;
14817;SDS011;7500;57.698;11.986;2023-07-30T09:25:38;6.53;;;3.30;;
14817;SDS011;7500;57.698;11.986;2023-07-30T09:28:05;8.27;;;3.27;;
14817;SDS011;7500;57.698;11.986;2023-07-30T09:30:31;7.50;;;3.43;;
14817;SDS011;7500;57.698;11.986;2023-07-30T09:32:59;7.70;;;2.90;;
14817;SDS011;7500;57.698;11.986;2023-07-30T09:35:25;6.10;;;3.10;;
14817;SDS011;7500;57.698;11.986;2023-07-30T09:37:57;6.93;;;2.80;;
14817;SDS011;7500;57.698;11.986;2023-07-30T09:40:32;5.40;;;2.90;;
14817;SDS011;7500;57.698;11.986;2023-07-30T09:42:59;6.20;;;2.97;;
14817;SDS011;7500;57.698;11.986;2023-07-30T09:45:25;6.80;;;2.73;;
14817;SDS011;7500;57.698;11.986;2023-07-30T09:47:53;5.37;;;2.90;;
14817;SDS011;7500;57.698;11.986;2023-07-30T09:50:21;5.80;;;2.50;;
14817;SDS011;7500;57.698;11.986;2023-07-30T09:52:48;8.27;;;2.60;;
14817;SDS011;7500;57.698;11.986;2023-07-30T09:55:15;6.57;;;2.60;;
14817;SDS011;7500;57.698;11.986;2023-07-30T09:57:45;4.63;;;2.40;;
14817;SDS011;7500;57.698;11.986;2023-07-30T10:00:11;6.57;;;2.40;;
14817;SDS011;7500;57.698;11.986;2023-07-30T10:02:39;5.27;;;2.40;;
14817;SDS011;7500;57.698;11.986;2023-07-30T10:05:07;6.67;;;2.43;;
14817;SDS011;7500;57.698;11.986;2023-07-30T10:07:34;5.07;;;2.43;;
14817;SDS011;7500;57.698;11.986;2023-07-30T10:10:02;7.63;;;2.30;;
14817;SDS011;7500;57.698;11.986;2023-07-30T10:12:29;3.30;;;2.10;;
14817;SDS011;7500;57.698;11.986;2023-07-30T10:14:58;6.40;;;2.33;;
14817;SDS011;7500;57.698;11.986;2023-07-30T10:17:26;3.93;;;2.23;;
14817;SDS011;7500;57.698;11.986;2023-07-30T10:19:53;7.13;;;2.10;;
14817;SDS011;7500;57.698;11.986;2023-07-30T10:22:21;4.60;;;2.00;;
14817;SDS011;7500;57.698;11.986;2023-07-30T10:24:58;4.23;;;2.17;;
14817;SDS011;7500;57.698;11.986;2023-07-30T10:27:27;6.07;;;2.53;;
14817;SDS011;7500;57.698;11.986;2023-07-30T10:30:11;6.67;;;2.33;;
14817;SDS011;7500;57.698;11.986;2023-07-30T10:32:38;3.97;;;2.40;;
14817;SDS011;7500;57.698;11.986;2023-07-30T10:35:05;5.30;;;2.40;;
14817;SDS011;7500;57.698;11.986;2023-07-30T10:37:32;5.97;;;2.60;;
14817;SDS011;7500;57.698;11.986;2023-07-30T10:39:58;5.50;;;2.13;;
14817;SDS011;7500;57.698;11.986;2023-07-30T10:42:32;2.90;;;2.07;;
14817;SDS011;7500;57.698;11.986;2023-07-30T10:45:00;5.33;;;2.40;;
14817;SDS011;7500;57.698;11.986;2023-07-30T10:47:28;6.77;;;2.80;;
14817;SDS011;7500;57.698;11.986;2023-07-30T10:49:55;4.77;;;2.13;;
14817;SDS011;7500;57.698;11.986;2023-07-30T10:52:26;4.20;;;2.10;;
14817;SDS011;7500;57.698;11.986;2023-07-30T10:54:59;4.60;;;2.10;;
14817;SDS011;7500;57.698;11.986;2023-07-30T10:57:29;5.67;;;2.30;;
14817;SDS011;7500;57.698;11.986;2023-07-30T10:59:56;7.60;;;2.27;;
14817;SDS011;7500;57.698;11.986;2023-07-30T11:02:23;5.87;;;2.20;;
14817;SDS011;7500;57.698;11.986;2023-07-30T11:04:50;3.77;;;1.80;;
14817;SDS011;7500;57.698;11.986;2023-07-30T11:07:17;4.40;;;1.90;;
14817;SDS011;7500;57.698;11.986;2023-07-30T11:09:44;4.13;;;2.00;;
14817;SDS011;7500;57.698;11.986;2023-07-30T11:12:11;4.60;;;1.93;;
14817;SDS011;7500;57.698;11.986;2023-07-30T11:14:37;7.27;;;2.43;;
14817;SDS011;7500;57.698;11.986;2023-07-30T11:17:04;4.83;;;2.00;;
14817;SDS011;7500;57.698;11.986;2023-07-30T11:19:30;6.13;;;2.40;;
14817;SDS011;7500;57.698;11.986;2023-07-30T11:22:00;6.67;;;2.70;;
14817;SDS011;7500;57.698;11.986;2023-07-30T11:24:34;6.30;;;2.27;;
14817;SDS011;7500;57.698;11.986;2023-07-30T11:27:01;9.60;;;2.70;;
14817;SDS011;7500;57.698;11.986;2023-07-30T11:29:27;7.60;;;2.80;;
14817;SDS011;7500;57.698;11.986;2023-07-30T11:31:56;7.00;;;2.80;;
14817;SDS011;7500;57.698;11.986;2023-07-30T11:34:23;8.50;;;2.60;;
14817;SDS011;7500;57.698;11.986;2023-07-30T11:36:49;6.13;;;2.70;;
14817;SDS011;7500;57.698;11.986;2023-07-30T11:39:17;10.67;;;3.03;;
14817;SDS011;7500;57.698;11.986;2023-07-30T11:41:44;9.73;;;2.87;;
14817;SDS011;7500;57.698;11.986;2023-07-30T11:46:53;8.80;;;2.80;;
14817;SDS011;7500;57.698;11.986;2023-07-30T11:49:20;4.83;;;2.53;;
14817;SDS011;7500;57.698;11.986;2023-07-30T11:51:47;7.00;;;2.37;;
14817;SDS011;7500;57.698;11.986;2023-07-30T11:54:22;7.30;;;2.60;;
14817;SDS011;7500;57.698;11.986;2023-07-30T11:56:53;6.40;;;2.13;;
14817;SDS011;7500;57.698;11.986;2023-07-30T11:59:20;7.00;;;2.50;;
14817;SDS011;7500;57.698;11.986;2023-07-30T12:01:47;4.83;;;2.23;;
14817;SDS011;7500;57.698;11.986;2023-07-30T12:04:13;6.43;;;2.50;;
14817;SDS011;7500;57.698;11.986;2023-07-30T12:06:40;7.90;;;2.77;;
14817;SDS011;7500;57.698;11.986;2023-07-30T12:09:13;7.07;;;2.60;;
14817;SDS011;7500;57.698;11.986;2023-07-30T12:11:48;5.90;;;2.10;;
14817;SDS011;7500;57.698;11.986;2023-07-30T12:14:15;6.30;;;2.63;;
14817;SDS011;7500;57.698;11.986;2023-07-30T12:16:42;6.13;;;2.20;;
14817;SDS011;7500;57.698;11.986;2023-07-30T12:19:09;5.63;;;2.30;;
14817;SDS011;7500;57.698;11.986;2023-07-30T12:21:35;6.10;;;2.57;;
14817;SDS011;7500;57.698;11.986;2023-07-30T12:24:02;4.97;;;2.53;;
14817;SDS011;7500;57.698;11.986;2023-07-30T12:26:29;5.77;;;2.13;;
14817;SDS011;7500;57.698;11.986;2023-07-30T12:28:57;7.33;;;2.40;;
14817;SDS011;7500;57.698;11.986;2023-07-30T12:31:24;7.30;;;2.30;;
14817;SDS011;7500;57.698;11.986;2023-07-30T12:33:50;5.57;;;2.90;;
14817;SDS011;7500;57.698;11.986;2023-07-30T12:36:17;7.30;;;2.30;;
14817;SDS011;7500;57.698;11.986;2023-07-30T12:38:43;5.27;;;2.20;;
14817;SDS011;7500;57.698;11.986;2023-07-30T12:41:10;5.43;;;2.33;;
14817;SDS011;7500;57.698;11.986;2023-07-30T12:43:36;7.03;;;2.40;;
14817;SDS011;7500;57.698;11.986;2023-07-30T12:46:04;5.50;;;2.10;;
14817;SDS011;7500;57.698;11.986;2023-07-30T12:48:31;7.27;;;2.63;;
14817;SDS011;7500;57.698;11.986;2023-07-30T12:50:58;5.57;;;2.17;;
14817;SDS011;7500;57.698;11.986;2023-07-30T12:53:24;5.97;;;2.30;;
14817;SDS011;7500;57.698;11.986;2023-07-30T12:55:51;8.33;;;2.30;;
14817;SDS011;7500;57.698;11.986;2023-07-30T12:58:18;6.63;;;2.23;;
14817;SDS011;7500;57.698;11.986;2023-07-30T13:00:44;3.00;;;1.80;;
14817;SDS011;7500;57.698;11.986;2023-07-30T13:03:12;4.90;;;2.30;;
14817;SDS011;7500;57.698;11.986;2023-07-30T13:05:39;5.30;;;2.53;;
14817;SDS011;7500;57.698;11.986;2023-07-30T13:08:05;7.37;;;2.40;;
14817;SDS011;7500;57.698;11.986;2023-07-30T13:10:32;7.13;;;2.20;;
14817;SDS011;7500;57.698;11.986;2023-07-30T13:12:58;7.93;;;2.40;;
14817;SDS011;7500;57.698;11.986;2023-07-30T13:15:25;4.20;;;2.20;;
14817;SDS011;7500;57.698;11.986;2023-07-30T13:17:53;5.90;;;2.20;;
14817;SDS011;7500;57.698;11.986;2023-07-30T13:20:21;4.10;;;2.00;;
14817;SDS011;7500;57.698;11.986;2023-07-30T13:22:47;4.40;;;1.87;;
14817;SDS011;7500;57.698;11.986;2023-07-30T13:25:14;5.23;;;2.37;;
14817;SDS011;7500;57.698;11.986;2023-07-30T13:27:41;4.27;;;2.30;;
14817;SDS011;7500;57.698;11.986;2023-07-30T13:30:08;5.43;;;2.80;;
14817;SDS011;7500;57.698;11.986;2023-07-30T13:32:34;6.60;;;2.20;;
14817;SDS011;7500;57.698;11.986;2023-07-30T13:35:01;3.70;;;2.30;;
14817;SDS011;7500;57.698;11.986;2023-07-30T13:37:29;4.43;;;2.10;;
14817;SDS011;7500;57.698;11.986;2023-07-30T13:39:56;7.17;;;2.40;;
14817;SDS011;7500;57.698;11.986;2023-07-30T13:42:22;3.83;;;2.17;;
14817;SDS011;7500;57.698;11.986;2023-07-30T13:44:49;7.57;;;2.40;;
14817;SDS011;7500;57.698;11.986;2023-07-30T13:47:15;5.77;;;2.63;;
14817;SDS011;7500;57.698;11.986;2023-07-30T13:49:42;3.37;;;1.80;;
14817;SDS011;7500;57.698;11.986;2023-07-30T13:52:08;5.00;;;2.17;;
14817;SDS011;7500;57.698;11.986;2023-07-30T13:54:36;4.30;;;2.20;;
14817;SDS011;7500;57.698;11.986;2023-07-30T13:57:03;4.10;;;2.10;;
14817;SDS011;7500;57.698;11.986;2023-07-30T13:59:30;4.97;;;2.03;;
14817;SDS011;7500;57.698;11.986;2023-07-30T14:01:57;5.13;;;1.70;;
14817;SDS011;7500;57.698;11.986;2023-07-30T14:04:23;4.30;;;1.83;;
14817;SDS011;7500;57.698;11.986;2023-07-30T14:06:50;5.23;;;2.10;;
14817;SDS011;7500;57.698;11.986;2023-07-30T14:09:17;5.43;;;2.20;;
14817;SDS011;7500;57.698;11.986;2023-07-30T14:11:45;5.37;;;2.00;;
14817;SDS011;7500;57.698;11.986;2023-07-30T14:14:11;5.63;;;1.97;;
14817;SDS011;7500;57.698;11.986;2023-07-30T14:16:38;3.10;;;1.90;;
14817;SDS011;7500;57.698;11.986;2023-07-30T14:19:05;3.17;;;1.80;;
14817;SDS011;7500;57.698;11.986;2023-07-30T14:21:31;4.57;;;2.20;;
14817;SDS011;7500;57.698;11.986;2023-07-30T14:23:58;5.57;;;2.00;;
14817;SDS011;7500;57.698;11.986;2023-07-30T14:26:24;4.53;;;1.97;;
14817;SDS011;7500;57.698;11.986;2023-07-30T14:28:52;3.47;;;1.80;;
14817;SDS011;7500;57.698;11.986;2023-07-30T14:31:19;7.00;;;2.07;;
14817;SDS011;7500;57.698;11.986;2023-07-30T14:33:45;5.07;;;2.13;;
14817;SDS011;7500;57.698;11.986;2023-07-30T14:36:12;6.40;;;1.93;;
14817;SDS011;7500;57.698;11.986;2023-07-30T14:38:39;3.90;;;1.67;;
14817;SDS011;7500;57.698;11.986;2023-07-30T14:41:06;3.97;;;2.03;;
14817;SDS011;7500;57.698;11.986;2023-07-30T14:43:34;4.73;;;2.17;;
14817;SDS011;7500;57.698;11.986;2023-07-30T14:46:02;10.67;;;4.37;;
14817;SDS011;7500;57.698;11.986;2023-07-30T14:48:28;5.77;;;2.43;;